Time;durP1;ratioP1;P1;durP2;ratioP2;P2;SDS_P1;SDS_P2;PMS_P1;PMS_P2;Temp;Humidity;BMP_temperature;BMP_pressure;BME280_temperature;BME280_humidity;BME280_pressure;Samples;Min_cycle;Max_cycle;Signal;HPM_P1;HPM_P2
2024/01/17 00:00:22;;;;;;;7.80;2.97;;;-0.20;99.90;;;;;;5090112;28;20047;-88
2024/01/17 00:02:48;;;;;;;10.70;3.92;;;-0.20;99.90;;;;;;5072030;27;20039;-88
2024/01/17 00:05:14;;;;;;;5.65;2.38;;;-0.10;99.90;;;;;;5089055;28;20097;-88
2024/01/17 00:07:40;;;;;;;4.20;2.55;;;-0.20;99.90;;;;;;5091408;28;20039;-88
2024/01/17 00:10:06;;;;;;;8.27;4.18;;;-0.20;99.90;;;;;;5073405;28;20043;-87
2024/01/17 00:12:32;;;;;;;11.70;3.88;;;-0.20;99.90;;;;;;5089109;28;20128;-88
2024/01/17 00:14:58;;;;;;;5.95;2.75;;;-0.20;99.90;;;;;;5089930;28;20039;-88
2024/01/17 00:17:24;;;;;;;9.88;4.32;;;-0.20;99.90;;;;;;5071062;28;20035;-88
2024/01/17 00:19:50;;;;;;;9.02;4.00;;;-0.20;99.90;;;;;;5091254;27;20063;-88
2024/01/17 00:22:16;;;;;;;7.78;3.22;;;-0.20;99.90;;;;;;5090676;28;20491;-88
2024/01/17 00:24:42;;;;;;;10.40;4.80;;;-0.20;99.90;;;;;;5095666;27;20620;-88
2024/01/17 00:27:08;;;;;;;11.85;3.85;;;-0.20;99.90;;;;;;5072408;28;20609;-88
2024/01/17 00:29:34;;;;;;;7.47;3.58;;;-0.20;99.90;;;;;;5071212;28;20612;-89
2024/01/17 00:32:00;;;;;;;10.27;3.88;;;-0.20;99.90;;;;;;5088176;28;20070;-88
2024/01/17 00:34:26;;;;;;;8.43;3.10;;;-0.20;99.90;;;;;;5072013;28;20418;-89
2024/01/17 00:36:51;;;;;;;10.18;5.18;;;-0.20;99.90;;;;;;5097832;28;20499;-88
2024/01/17 00:39:18;;;;;;;9.23;3.63;;;-0.20;99.90;;;;;;5089406;28;20036;-88
2024/01/17 00:41:45;;;;;;;9.98;4.28;;;-0.20;99.90;;;;;;5072626;28;20040;-88
2024/01/17 00:44:14;;;;;;;9.32;3.97;;;-0.20;99.90;;;;;;5070913;28;20028;-88
2024/01/17 00:46:40;;;;;;;13.52;2.60;;;-0.20;99.90;;;;;;5073647;28;20652;-88
2024/01/17 00:49:06;;;;;;;10.18;4.85;;;-0.20;99.90;;;;;;5089275;28;20084;-88
2024/01/17 00:51:32;;;;;;;11.02;4.18;;;-0.20;99.90;;;;;;5073137;28;20040;-88
2024/01/17 00:53:57;;;;;;;19.15;5.88;;;-0.20;99.90;;;;;;5089118;28;20036;-88
2024/01/17 00:56:23;;;;;;;11.52;6.35;;;-0.20;99.90;;;;;;5088618;28;20059;-88
2024/01/17 00:58:48;;;;;;;12.00;3.40;;;-0.20;99.90;;;;;;5087774;28;20039;-87
2024/01/17 01:01:14;;;;;;;11.68;4.93;;;-0.20;99.90;;;;;;5070769;28;20449;-88
2024/01/17 01:03:40;;;;;;;7.70;3.40;;;-0.20;99.90;;;;;;5091964;28;20039;-88
2024/01/17 01:06:05;;;;;;;13.02;5.20;;;-0.20;99.90;;;;;;5091637;28;20043;-88
2024/01/17 01:08:31;;;;;;;15.20;5.80;;;-0.20;99.90;;;;;;5072348;28;20403;-88
2024/01/17 01:10:56;;;;;;;9.73;4.75;;;-0.30;99.90;;;;;;5072551;28;20042;-88
2024/01/17 01:13:23;;;;;;;9.77;3.88;;;-0.30;99.90;;;;;;5087995;28;20164;-88
2024/01/17 01:15:48;;;;;;;11.05;4.10;;;-0.30;99.90;;;;;;5071219;28;20114;-88
2024/01/17 01:18:14;;;;;;;8.50;3.75;;;-0.30;99.90;;;;;;5089431;28;20127;-87
2024/01/17 01:20:40;;;;;;;8.73;3.65;;;-0.40;99.90;;;;;;5074279;28;20452;-87
2024/01/17 01:23:06;;;;;;;11.68;4.75;;;-0.40;99.90;;;;;;5090178;28;20035;-88
2024/01/17 01:25:31;;;;;;;8.68;4.22;;;-0.50;99.90;;;;;;5088393;28;20479;-88
2024/01/17 01:27:57;;;;;;;11.13;6.15;;;-0.40;99.90;;;;;;5070969;28;20090;-88
2024/01/17 01:30:23;;;;;;;13.15;5.50;;;-0.50;99.90;;;;;;5087511;28;20487;-88
2024/01/17 01:32:48;;;;;;;10.93;5.20;;;-0.50;99.90;;;;;;5091002;28;20040;-88
2024/01/17 01:35:14;;;;;;;10.00;4.68;;;-0.50;99.90;;;;;;5073526;28;20089;-88
2024/01/17 01:37:40;;;;;;;9.98;4.10;;;-0.50;99.90;;;;;;5089122;28;20032;-88
2024/01/17 01:40:07;;;;;;;14.77;5.65;;;-0.50;99.90;;;;;;5091487;28;20487;-88
2024/01/17 01:42:34;;;;;;;12.82;5.93;;;-0.50;99.90;;;;;;5092143;28;20032;-88
2024/01/17 01:45:00;;;;;;;16.33;6.68;;;-0.50;99.90;;;;;;5074949;28;20379;-88
2024/01/17 01:47:26;;;;;;;10.40;5.20;;;-0.50;99.90;;;;;;5094730;28;20077;-88
2024/01/17 01:49:52;;;;;;;12.13;4.72;;;-0.50;99.90;;;;;;5081398;28;20032;-88
2024/01/17 01:52:20;;;;;;;13.23;5.63;;;-0.50;99.90;;;;;;5094312;28;20100;-88
2024/01/17 01:54:46;;;;;;;9.30;4.70;;;-0.50;99.90;;;;;;5098404;28;20079;-88
2024/01/17 01:57:12;;;;;;;10.32;5.30;;;-0.50;99.90;;;;;;5093086;28;20059;-88
2024/01/17 01:59:38;;;;;;;8.65;4.78;;;-0.50;99.90;;;;;;5074709;28;20032;-88
2024/01/17 02:02:05;;;;;;;9.98;4.25;;;-0.50;99.90;;;;;;5092834;28;20411;-88
2024/01/17 02:04:32;;;;;;;10.65;5.80;;;-0.50;99.90;;;;;;5093481;28;20081;-88
2024/01/17 02:07:01;;;;;;;9.93;5.38;;;-0.50;99.90;;;;;;5074600;28;20496;-88
2024/01/17 02:09:28;;;;;;;15.10;5.72;;;-0.50;99.90;;;;;;5094455;27;20035;-88
2024/01/17 02:11:55;;;;;;;11.13;5.95;;;-0.50;99.90;;;;;;5074131;28;20044;-88
2024/01/17 02:14:20;;;;;;;11.55;6.00;;;-0.50;99.90;;;;;;5073354;28;20032;-87
2024/01/17 02:16:46;;;;;;;12.57;6.28;;;-0.50;99.90;;;;;;5076286;28;20043;-88
2024/01/17 02:19:17;;;;;;;7.35;4.53;;;-0.50;99.90;;;;;;5112017;28;20032;-88
2024/01/17 02:21:43;;;;;;;7.75;4.38;;;-0.50;99.90;;;;;;5081935;28;20050;-88
2024/01/17 02:24:28;;;;;;;16.38;5.93;;;-0.50;99.90;;;;;;5078929;28;20035;-88
2024/01/17 02:26:54;;;;;;;56.25;5.28;;;-0.50;99.90;;;;;;5078428;28;20511;-89
2024/01/17 02:29:20;;;;;;;11.90;4.68;;;-0.50;99.90;;;;;;5079373;28;20381;-89
2024/01/17 02:31:47;;;;;;;7.35;3.88;;;-0.50;99.90;;;;;;5099326;27;20032;-88
2024/01/17 02:34:13;;;;;;;16.65;7.03;;;-0.50;99.90;;;;;;5086232;28;20251;-88
2024/01/17 02:36:38;;;;;;;11.25;5.10;;;-0.50;99.90;;;;;;5096690;28;20467;-88
2024/01/17 02:39:04;;;;;;;14.27;5.63;;;-0.50;99.90;;;;;;5076567;28;20568;-88
2024/01/17 02:41:30;;;;;;;12.13;6.20;;;-0.50;99.90;;;;;;5097428;28;20042;-88
2024/01/17 02:43:56;;;;;;;11.32;5.90;;;-0.50;99.90;;;;;;5076599;27;20118;-88
2024/01/17 02:46:27;;;;;;;13.77;6.82;;;-0.50;99.90;;;;;;5095944;27;20035;-88
2024/01/17 02:48:53;;;;;;;9.25;4.70;;;-0.50;99.90;;;;;;5076447;28;20590;-88
2024/01/17 02:51:18;;;;;;;9.25;4.50;;;-0.50;99.90;;;;;;5093265;28;20114;-87
2024/01/17 02:53:44;;;;;;;8.43;4.72;;;-0.50;99.90;;;;;;5075687;28;20044;-88
2024/01/17 02:56:09;;;;;;;15.93;7.50;;;-0.50;99.90;;;;;;5090542;28;20035;-88
2024/01/17 02:58:35;;;;;;;13.13;5.43;;;-0.50;99.90;;;;;;5091778;28;20085;-88
2024/01/17 03:01:01;;;;;;;6.32;3.22;;;-0.50;99.90;;;;;;5075165;28;20483;-87
2024/01/17 03:03:26;;;;;;;8.23;3.05;;;-0.50;99.90;;;;;;5099604;28;20038;-88
2024/01/17 03:05:52;;;;;;;9.85;4.25;;;-0.50;99.90;;;;;;5091450;27;20043;-87
2024/01/17 03:08:17;;;;;;;7.30;3.90;;;-0.60;99.90;;;;;;5090211;28;20040;-87
2024/01/17 03:10:43;;;;;;;13.10;6.20;;;-0.50;99.90;;;;;;5072130;27;20392;-87
2024/01/17 03:13:12;;;;;;;10.52;5.72;;;-0.50;99.90;;;;;;5072774;28;20036;-87
2024/01/17 03:15:38;;;;;;;8.02;3.78;;;-0.60;99.90;;;;;;5091124;28;20067;-87
2024/01/17 03:18:06;;;;;;;10.65;4.85;;;-0.60;99.90;;;;;;5078116;28;20047;-88
2024/01/17 03:20:32;;;;;;;8.88;4.32;;;-0.60;99.90;;;;;;5088994;28;20407;-89
2024/01/17 03:22:58;;;;;;;10.30;5.63;;;-0.60;99.90;;;;;;5088966;27;20036;-88
2024/01/17 03:25:23;;;;;;;14.50;6.47;;;-0.60;99.90;;;;;;5071008;28;20521;-89
2024/01/17 03:27:49;;;;;;;6.70;3.05;;;-0.60;99.90;;;;;;5090655;27;20028;-88
2024/01/17 03:30:15;;;;;;;15.30;6.07;;;-0.60;99.90;;;;;;5091389;28;20566;-89
2024/01/17 03:32:40;;;;;;;14.00;6.47;;;-0.70;99.90;;;;;;5093067;28;20043;-88
2024/01/17 03:35:06;;;;;;;14.88;6.05;;;-0.70;99.90;;;;;;5073061;28;20525;-89
2024/01/17 03:37:32;;;;;;;5.90;3.30;;;-0.70;99.90;;;;;;5071800;28;20063;-88
2024/01/17 03:39:57;;;;;;;7.50;3.42;;;-0.70;99.90;;;;;;5071936;28;20130;-89
2024/01/17 03:42:23;;;;;;;14.88;5.22;;;-0.70;99.90;;;;;;5080855;28;20079;-88
2024/01/17 03:44:48;;;;;;;10.77;5.00;;;-0.70;99.90;;;;;;5092244;28;20130;-88
2024/01/17 03:47:14;;;;;;;7.70;3.95;;;-0.70;99.90;;;;;;5073449;28;20031;-89
2024/01/17 03:49:39;;;;;;;13.90;5.85;;;-0.80;99.90;;;;;;5073305;28;20039;-89
2024/01/17 03:52:07;;;;;;;6.70;3.60;;;-0.80;99.90;;;;;;5072175;28;20032;-88
2024/01/17 03:54:34;;;;;;;6.78;3.42;;;-0.80;99.90;;;;;;5072748;28;20032;-89
2024/01/17 03:56:59;;;;;;;10.32;3.75;;;-0.80;99.90;;;;;;5072690;28;20036;-89
2024/01/17 03:59:27;;;;;;;7.03;3.10;;;-0.80;99.90;;;;;;5090859;28;20169;-88
2024/01/17 04:01:53;;;;;;;10.55;4.18;;;-0.80;99.90;;;;;;5093250;28;20043;-88
2024/01/17 04:04:18;;;;;;;9.20;4.60;;;-0.90;99.90;;;;;;5092728;28;20038;-88
2024/01/17 04:06:44;;;;;;;13.65;4.75;;;-0.90;99.90;;;;;;5072698;28;20036;-88
2024/01/17 04:09:10;;;;;;;10.13;3.95;;;-0.90;99.90;;;;;;5071954;28;20521;-89
2024/01/17 04:11:36;;;;;;;11.48;5.03;;;-0.90;99.90;;;;;;5074425;28;20043;-88
2024/01/17 04:14:02;;;;;;;10.30;4.63;;;-0.90;99.90;;;;;;5076280;28;20085;-88
2024/01/17 04:16:27;;;;;;;10.48;4.90;;;-0.90;99.90;;;;;;5101521;27;20040;-89
2024/01/17 04:18:53;;;;;;;9.95;4.13;;;-0.90;99.90;;;;;;5074445;28;20028;-88
2024/01/17 04:21:20;;;;;;;13.32;5.72;;;-0.90;99.90;;;;;;5089242;28;20028;-88
2024/01/17 04:23:48;;;;;;;14.38;4.97;;;-0.80;99.90;;;;;;5072091;28;20368;-88
2024/01/17 04:26:25;;;;;;;13.60;4.85;;;-0.80;99.90;;;;;;5090491;28;20066;-89
2024/01/17 04:28:51;;;;;;;10.95;4.85;;;-0.80;99.90;;;;;;5075202;28;20039;-89
2024/01/17 04:31:29;;;;;;;7.40;3.08;;;-0.90;99.90;;;;;;5073377;28;20032;-89
2024/01/17 04:33:56;;;;;;;6.13;3.53;;;-0.80;99.90;;;;;;5096599;28;20028;-89
2024/01/17 04:36:24;;;;;;;10.85;4.80;;;-0.80;99.90;;;;;;5089274;27;20048;-89
2024/01/17 04:38:49;;;;;;;12.18;5.20;;;-0.80;99.90;;;;;;5088547;28;20042;-89
2024/01/17 04:41:16;;;;;;;6.45;3.55;;;-0.80;99.90;;;;;;5089834;28;21468;-88
2024/01/17 04:43:44;;;;;;;10.60;3.10;;;-0.80;99.90;;;;;;5092558;27;20032;-89
2024/01/17 04:46:12;;;;;;;8.85;2.92;;;-0.80;99.90;;;;;;5071634;28;20039;-89
2024/01/17 04:48:39;;;;;;;6.88;3.17;;;-0.80;99.90;;;;;;5089376;28;20067;-89
2024/01/17 04:51:06;;;;;;;9.05;3.40;;;-0.80;99.90;;;;;;5088013;28;20085;-88
2024/01/17 04:53:37;;;;;;;12.77;5.38;;;-0.80;99.90;;;;;;5088743;28;20032;-88
2024/01/17 04:56:06;;;;;;;11.50;5.07;;;-0.80;99.90;;;;;;5089167;28;20067;-89
2024/01/17 04:58:33;;;;;;;9.10;4.63;;;-0.80;99.90;;;;;;5093176;28;20028;-88
2024/01/17 05:00:59;;;;;;;10.30;4.70;;;-0.80;99.90;;;;;;5113713;27;20103;-89
2024/01/17 05:03:25;;;;;;;8.30;3.10;;;-0.80;99.90;;;;;;5088465;28;20040;-88
2024/01/17 05:05:51;;;;;;;11.15;4.20;;;-0.80;99.90;;;;;;5087163;28;20043;-88
2024/01/17 05:08:16;;;;;;;9.13;4.63;;;-0.80;99.90;;;;;;5094651;28;20040;-88
2024/01/17 05:10:46;;;;;;;6.57;3.25;;;-0.80;99.90;;;;;;5092562;28;20039;-89
2024/01/17 05:13:13;;;;;;;9.65;3.40;;;-0.80;99.90;;;;;;5098360;27;20040;-89
2024/01/17 05:15:39;;;;;;;9.10;4.72;;;-0.80;99.90;;;;;;5094189;27;20040;-88
2024/01/17 05:18:05;;;;;;;10.13;5.70;;;-0.80;99.90;;;;;;5092540;28;20036;-86
2024/01/17 05:20:31;;;;;;;6.82;3.03;;;-0.80;99.90;;;;;;5091750;28;20036;-87
2024/01/17 05:22:57;;;;;;;9.48;3.88;;;-0.80;99.90;;;;;;5092639;28;20032;-86
2024/01/17 05:25:22;;;;;;;10.82;4.57;;;-0.80;99.90;;;;;;5093306;28;20146;-86
2024/01/17 05:27:51;;;;;;;12.55;3.92;;;-0.90;99.90;;;;;;5077640;28;20039;-86
2024/01/17 05:30:19;;;;;;;12.05;4.90;;;-0.80;99.90;;;;;;5092449;28;20415;-86
2024/01/17 05:32:44;;;;;;;12.05;5.30;;;-0.90;99.90;;;;;;5075444;28;20086;-86
2024/01/17 05:35:10;;;;;;;13.55;4.97;;;-0.90;99.90;;;;;;5073864;28;20423;-87
2024/01/17 05:37:40;;;;;;;15.13;4.70;;;-0.90;99.90;;;;;;5093955;28;20352;-87
2024/01/17 05:40:08;;;;;;;5.90;2.78;;;-0.90;99.90;;;;;;5078877;28;20032;-86
2024/01/17 05:42:34;;;;;;;13.25;5.60;;;-1.00;99.90;;;;;;5102394;28;20047;-86
2024/01/17 05:44:59;;;;;;;7.90;2.97;;;-1.00;99.90;;;;;;5076907;28;20036;-87
2024/01/17 05:47:25;;;;;;;10.27;4.28;;;-1.00;99.90;;;;;;5091195;28;20032;-86
2024/01/17 05:49:50;;;;;;;11.65;4.35;;;-1.00;99.90;;;;;;5074238;27;20032;-86
2024/01/17 05:52:16;;;;;;;9.82;4.55;;;-1.10;99.90;;;;;;5074922;28;20486;-86
2024/01/17 05:54:42;;;;;;;10.45;4.40;;;-1.10;99.90;;;;;;5077690;28;20091;-86
2024/01/17 05:57:08;;;;;;;13.10;5.78;;;-1.10;99.90;;;;;;5080341;28;20522;-86
2024/01/17 05:59:34;;;;;;;14.77;5.65;;;-1.20;99.90;;;;;;5078672;28;20071;-86
2024/01/17 06:01:59;;;;;;;14.65;5.15;;;-1.20;99.90;;;;;;5092801;28;20074;-87
2024/01/17 06:04:25;;;;;;;10.00;5.10;;;-1.20;99.90;;;;;;5090170;28;20132;-86
2024/01/17 06:06:51;;;;;;;12.02;6.25;;;-1.20;99.90;;;;;;5076582;27;20044;-86
2024/01/17 06:09:17;;;;;;;10.40;4.95;;;-1.20;99.90;;;;;;5093190;28;20032;-85
2024/01/17 06:11:43;;;;;;;10.68;4.80;;;-1.30;99.90;;;;;;5094692;28;20044;-88
2024/01/17 06:14:08;;;;;;;11.52;4.03;;;-1.30;99.90;;;;;;5074838;28;20039;-87
2024/01/17 06:16:34;;;;;;;11.00;4.55;;;-1.30;99.90;;;;;;5090111;28;20051;-87
2024/01/17 06:19:00;;;;;;;11.98;5.47;;;-1.30;99.90;;;;;;5091195;28;20130;-87
2024/01/17 06:21:26;;;;;;;10.77;4.68;;;-1.30;99.90;;;;;;5075744;28;20494;-87
2024/01/17 06:23:53;;;;;;;11.45;5.03;;;-1.30;99.90;;;;;;5079529;27;20573;-88
2024/01/17 06:26:19;;;;;;;10.30;4.82;;;-1.30;99.90;;;;;;5093498;28;20119;-87
2024/01/17 06:28:44;;;;;;;8.57;3.95;;;-1.30;99.90;;;;;;5077221;28;20123;-87
2024/01/17 06:31:10;;;;;;;11.30;5.25;;;-1.30;99.90;;;;;;5095264;28;20093;-88
2024/01/17 06:33:35;;;;;;;9.18;3.47;;;-1.30;99.90;;;;;;5076630;28;20055;-87
2024/01/17 06:36:02;;;;;;;7.10;3.33;;;-1.40;99.90;;;;;;5094109;27;20067;-88
2024/01/17 06:38:27;;;;;;;5.50;2.83;;;-1.40;99.90;;;;;;5110425;28;20096;-88
2024/01/17 06:40:53;;;;;;;8.55;3.60;;;-1.40;99.90;;;;;;5094752;28;20118;-88
2024/01/17 06:43:20;;;;;;;7.43;3.20;;;-1.40;99.90;;;;;;5079680;28;20843;-88
2024/01/17 06:45:46;;;;;;;9.40;3.88;;;-1.40;99.90;;;;;;5089845;28;20032;-88
2024/01/17 06:48:12;;;;;;;11.32;5.07;;;-1.40;99.90;;;;;;5072686;28;20035;-88
2024/01/17 06:50:37;;;;;;;11.07;5.45;;;-1.40;99.90;;;;;;5091891;28;20431;-88
2024/01/17 06:53:03;;;;;;;10.15;5.05;;;-1.40;99.90;;;;;;5093124;28;20027;-88
2024/01/17 06:55:29;;;;;;;10.15;3.15;;;-1.40;99.90;;;;;;5078218;28;20035;-88
2024/01/17 06:57:54;;;;;;;15.38;5.63;;;-1.40;99.90;;;;;;5094322;27;20486;-88
2024/01/17 07:00:20;;;;;;;8.40;3.78;;;-1.40;99.90;;;;;;5089861;27;20035;-88
2024/01/17 07:02:45;;;;;;;15.52;5.65;;;-1.40;99.90;;;;;;5090178;27;20388;-89
2024/01/17 07:05:12;;;;;;;12.55;5.72;;;-1.40;99.90;;;;;;5074892;28;20068;-89
2024/01/17 07:07:40;;;;;;;9.20;4.22;;;-1.40;99.90;;;;;;5094427;27;20089;-89
2024/01/17 07:10:08;;;;;;;10.25;4.72;;;-1.40;99.90;;;;;;5075347;28;20063;-89
2024/01/17 07:12:33;;;;;;;17.30;4.93;;;-1.50;99.90;;;;;;5091689;27;20043;-88
2024/01/17 07:14:59;;;;;;;7.28;3.03;;;-1.50;99.90;;;;;;5089458;28;20039;-88
2024/01/17 07:17:25;;;;;;;8.63;4.80;;;-1.50;99.90;;;;;;5075236;28;20031;-89
2024/01/17 07:19:51;;;;;;;8.95;3.60;;;-1.50;99.90;;;;;;5077589;27;20084;-88
2024/01/17 07:22:16;;;;;;;8.98;4.53;;;-1.50;99.90;;;;;;5092197;28;20039;-88
2024/01/17 07:24:44;;;;;;;8.63;4.10;;;-1.50;99.90;;;;;;5074371;28;20032;-88
2024/01/17 07:27:10;;;;;;;8.95;4.35;;;-1.50;99.90;;;;;;5103425;27;20035;-88
2024/01/17 07:29:36;;;;;;;5.85;3.33;;;-1.50;99.90;;;;;;5073561;28;20088;-89
2024/01/17 07:32:02;;;;;;;6.68;2.85;;;-1.60;99.90;;;;;;5089616;28;20036;-88
2024/01/17 07:34:28;;;;;;;8.15;4.10;;;-1.50;99.90;;;;;;5076559;28;20395;-88
2024/01/17 07:36:53;;;;;;;10.48;5.40;;;-1.60;99.90;;;;;;5098350;28;20035;-88
2024/01/17 07:39:19;;;;;;;7.82;4.15;;;-1.50;99.90;;;;;;5095570;28;20119;-88
2024/01/17 07:41:46;;;;;;;8.43;3.75;;;-1.60;99.90;;;;;;5099449;28;20483;-88
2024/01/17 07:44:12;;;;;;;8.60;4.40;;;-1.60;99.90;;;;;;5095393;28;20110;-87
2024/01/17 07:46:38;;;;;;;10.75;3.55;;;-1.60;99.90;;;;;;5093421;28;20127;-87
2024/01/17 07:49:03;;;;;;;5.05;2.55;;;-1.50;99.90;;;;;;5099480;27;20067;-87
2024/01/17 07:51:30;;;;;;;9.18;5.47;;;-1.60;99.90;;;;;;5099602;28;20060;-88
2024/01/17 07:53:56;;;;;;;7.05;2.10;;;-1.50;99.90;;;;;;5092654;27;20066;-88
2024/01/17 07:56:22;;;;;;;10.65;2.78;;;-1.50;99.90;;;;;;5097028;28;20043;-88
2024/01/17 07:58:49;;;;;;;11.32;4.35;;;-1.50;99.90;;;;;;5097203;28;20090;-88
2024/01/17 08:01:15;;;;;;;9.50;2.95;;;-1.50;99.90;;;;;;5094086;28;20071;-88
2024/01/17 08:03:41;;;;;;;7.63;3.95;;;-1.50;99.90;;;;;;5099262;28;20113;-88
2024/01/17 08:06:07;;;;;;;7.43;3.90;;;-1.50;99.90;;;;;;5095516;28;20044;-88
2024/01/17 08:08:33;;;;;;;5.82;2.78;;;-1.50;99.90;;;;;;5100531;28;20122;-88
2024/01/17 08:10:58;;;;;;;9.85;3.40;;;-1.50;99.90;;;;;;5094125;27;20043;-88
2024/01/17 08:13:24;;;;;;;7.93;3.38;;;-1.50;99.90;;;;;;5076315;28;20043;-88
2024/01/17 08:15:50;;;;;;;6.18;3.03;;;-1.50;99.90;;;;;;5074864;27;20088;-88
2024/01/17 08:18:16;;;;;;;12.20;4.32;;;-1.50;99.90;;;;;;5075223;28;20491;-88
2024/01/17 08:20:43;;;;;;;9.93;4.88;;;-1.50;99.90;;;;;;5095955;27;20039;-87
2024/01/17 08:23:08;;;;;;;6.75;3.28;;;-1.50;99.90;;;;;;5096085;28;20040;-88
2024/01/17 08:25:34;;;;;;;11.60;4.43;;;-1.40;99.90;;;;;;5091624;28;20036;-88
2024/01/17 08:28:00;;;;;;;11.18;4.03;;;-1.40;99.90;;;;;;5081019;28;20081;-90
2024/01/17 08:30:26;;;;;;;7.60;4.10;;;-1.40;99.90;;;;;;5095689;28;20035;-88
2024/01/17 08:32:53;;;;;;;12.88;6.18;;;-1.40;99.90;;;;;;5076079;28;20085;-88
2024/01/17 08:35:22;;;;;;;7.95;3.47;;;-1.40;99.90;;;;;;5076066;28;20035;-88
2024/01/17 08:37:48;;;;;;;9.40;3.88;;;-1.40;99.90;;;;;;5094681;28;20036;-88
2024/01/17 08:40:14;;;;;;;6.68;3.03;;;-1.40;99.90;;;;;;5080289;28;20492;-88
2024/01/17 08:42:39;;;;;;;10.27;5.07;;;-1.40;99.90;;;;;;5097125;28;20047;-88
2024/01/17 08:45:06;;;;;;;11.20;3.90;;;-1.30;99.90;;;;;;5103627;28;20040;-88
2024/01/17 08:47:32;;;;;;;8.73;3.60;;;-1.30;99.90;;;;;;5104105;28;20074;-88
2024/01/17 08:50:00;;;;;;;14.25;3.95;;;-1.30;99.90;;;;;;5105240;28;20079;-88
2024/01/17 08:52:26;;;;;;;10.80;4.75;;;-1.20;99.90;;;;;;5095548;28;20077;-88
2024/01/17 08:54:54;;;;;;;11.70;3.97;;;-1.20;99.90;;;;;;5105652;27;20040;-88
2024/01/17 08:57:20;;;;;;;12.98;4.53;;;-1.20;99.90;;;;;;5091795;28;20081;-88
2024/01/17 08:59:46;;;;;;;10.02;4.50;;;-1.20;99.90;;;;;;5107529;28;20048;-88
2024/01/17 09:02:12;;;;;;;9.23;3.25;;;-1.20;99.90;;;;;;5108643;28;20078;-88
2024/01/17 09:04:39;;;;;;;7.78;3.08;;;-1.20;99.90;;;;;;5083075;28;20040;-88
2024/01/17 09:07:05;;;;;;;14.82;5.47;;;-1.10;99.90;;;;;;5079083;28;20071;-89
2024/01/17 09:09:30;;;;;;;9.15;3.15;;;-1.10;99.90;;;;;;5099338;28;20063;-88
2024/01/17 09:11:57;;;;;;;13.77;4.90;;;-1.10;99.90;;;;;;5098475;28;20102;-88
2024/01/17 09:14:24;;;;;;;11.90;4.70;;;-1.00;99.90;;;;;;5097344;28;20031;-89
2024/01/17 09:16:51;;;;;;;9.13;3.92;;;-1.00;99.90;;;;;;5083081;28;20031;-88
2024/01/17 09:19:17;;;;;;;10.48;4.75;;;-1.00;99.90;;;;;;5087300;28;20085;-88
2024/01/17 09:21:43;;;;;;;10.27;4.35;;;-0.90;99.90;;;;;;5092041;28;20119;-89
2024/01/17 09:24:08;;;;;;;13.38;5.38;;;-0.90;99.90;;;;;;5088890;28;20123;-88
2024/01/17 09:26:34;;;;;;;11.80;5.25;;;-0.90;99.90;;;;;;5080996;28;20036;-88
2024/01/17 09:28:59;;;;;;;16.58;6.15;;;-0.80;99.90;;;;;;5094601;28;20040;-89
2024/01/17 09:31:25;;;;;;;9.80;4.38;;;-0.80;99.90;;;;;;5088733;28;20130;-89
2024/01/17 09:33:50;;;;;;;10.18;4.45;;;-0.80;99.90;;;;;;5096986;28;20074;-90
2024/01/17 09:36:16;;;;;;;9.48;4.13;;;-0.80;99.90;;;;;;5076479;28;20061;-89
2024/01/17 09:38:42;;;;;;;11.88;5.93;;;-0.70;99.90;;;;;;5094100;28;20414;-89
2024/01/17 09:41:07;;;;;;;9.73;4.25;;;-0.70;99.90;;;;;;5077743;28;20028;-89
2024/01/17 09:43:33;;;;;;;10.05;5.30;;;-0.70;99.90;;;;;;5089122;28;20122;-88
2024/01/17 09:46:00;;;;;;;13.05;4.38;;;-0.60;99.90;;;;;;5090878;28;20032;-88
2024/01/17 09:48:26;;;;;;;11.20;4.38;;;-0.60;99.90;;;;;;5075172;28;20044;-88
2024/01/17 09:50:52;;;;;;;11.70;4.93;;;-0.60;99.90;;;;;;5099356;28;20040;-89
2024/01/17 09:53:26;;;;;;;7.90;3.28;;;-0.60;99.90;;;;;;5078032;28;20487;-89
2024/01/17 09:55:53;;;;;;;10.60;4.30;;;-0.60;99.90;;;;;;5074776;28;20410;-90
2024/01/17 09:58:19;;;;;;;9.55;4.25;;;-0.60;99.90;;;;;;5094655;28;20051;-89
2024/01/17 10:00:48;;;;;;;9.38;5.18;;;-0.50;99.90;;;;;;5098395;27;20049;-90
2024/01/17 10:03:20;;;;;;;11.27;4.93;;;-0.50;99.90;;;;;;5099760;28;20028;-89
2024/01/17 10:05:50;;;;;;;11.50;5.45;;;-0.50;99.90;;;;;;5096604;27;20040;-89
2024/01/17 10:08:18;;;;;;;11.50;4.93;;;-0.40;99.90;;;;;;5075608;28;20472;-90
2024/01/17 10:10:44;;;;;;;14.05;3.42;;;-0.40;99.90;;;;;;5103123;27;20067;-89
2024/01/17 10:13:13;;;;;;;10.55;4.75;;;-0.40;99.90;;;;;;5082717;28;20063;-90
2024/01/17 10:15:42;;;;;;;10.30;3.97;;;-0.40;99.90;;;;;;5079666;27;20074;-90
2024/01/17 10:18:12;;;;;;;9.32;4.40;;;-0.40;99.90;;;;;;5101830;27;20294;-92
2024/01/17 10:20:38;;;;;;;7.18;3.25;;;-0.40;99.90;;;;;;5097972;28;20035;-91
2024/01/17 10:23:06;;;;;;;9.60;4.53;;;-0.30;99.90;;;;;;5078700;28;20028;-92
2024/01/17 10:25:42;;;;;;;6.63;3.55;;;-0.30;99.90;;;;;;5095439;28;20161;-92
2024/01/17 10:28:08;;;;;;;9.65;3.15;;;-0.30;99.90;;;;;;5097765;28;20067;-92
2024/01/17 10:30:36;;;;;;;9.60;4.13;;;-0.30;99.90;;;;;;5080038;28;20040;-91
2024/01/17 10:33:02;;;;;;;11.55;4.57;;;-0.30;99.90;;;;;;5080513;28;20043;-91
2024/01/17 10:35:28;;;;;;;9.07;3.28;;;-0.20;99.90;;;;;;5078980;28;20100;-92
2024/01/17 10:37:55;;;;;;;13.45;5.90;;;-0.20;99.90;;;;;;5083736;28;21651;-92
2024/01/17 10:40:21;;;;;;;10.05;5.63;;;-0.20;99.90;;;;;;5096022;28;20035;-92
2024/01/17 10:42:46;;;;;;;11.15;4.93;;;-0.20;99.90;;;;;;5096585;28;20052;-92
2024/01/17 10:45:22;;;;;;;7.28;3.05;;;-0.10;99.90;;;;;;5079963;28;20043;-92
2024/01/17 10:47:48;;;;;;;9.60;3.97;;;-0.10;99.90;;;;;;5098283;27;20071;-91
2024/01/17 10:50:16;;;;;;;11.35;4.25;;;-0.20;99.90;;;;;;5082574;28;20055;-90
2024/01/17 10:52:43;;;;;;;12.05;4.72;;;-0.10;99.90;;;;;;5094022;28;20040;-90
2024/01/17 10:55:10;;;;;;;8.65;4.05;;;-0.10;99.90;;;;;;5073461;28;20043;-90
2024/01/17 10:57:44;;;;;;;12.07;4.78;;;-0.10;99.90;;;;;;5091103;28;20068;-89
2024/01/17 11:00:16;;;;;;;8.27;3.88;;;-0.10;99.90;;;;;;5078030;28;20055;-90
2024/01/17 11:02:42;;;;;;;;;;;-0.10;99.90;;;;;;5077935;28;20039;-90
2024/01/17 11:05:13;;;;;;;10.95;4.75;;;-0.10;99.90;;;;;;5098986;28;20177;-90
2024/01/17 11:07:40;;;;;;;11.77;5.15;;;-0.10;99.90;;;;;;5075724;27;20056;-90
2024/01/17 11:10:08;;;;;;;6.68;3.40;;;-0.10;99.90;;;;;;5104743;28;20036;-90
2024/01/17 11:12:36;;;;;;;16.15;6.60;;;-0.10;99.90;;;;;;5099014;27;20035;-90
2024/01/17 11:15:06;;;;;;;11.48;5.20;;;0.00;99.90;;;;;;5081600;28;20042;-90
2024/01/17 11:17:35;;;;;;;12.00;4.85;;;0.00;99.90;;;;;;5093321;28;20120;-90
2024/01/17 11:20:07;;;;;;;12.48;4.40;;;0.00;99.90;;;;;;5093753;27;20040;-90
2024/01/17 11:22:34;;;;;;;11.95;4.85;;;0.00;99.90;;;;;;5096128;28;20038;-91
2024/01/17 11:25:22;;;;;;;10.70;3.70;;;0.10;99.90;;;;;;5092037;27;20028;-89
2024/01/17 11:27:59;;;;;;;5.80;2.50;;;0.10;99.90;;;;;;5097717;28;20047;-92
2024/01/17 11:30:36;;;;;;;10.32;4.40;;;0.10;99.90;;;;;;5100749;28;20119;-92
2024/01/17 11:33:21;;;;;;;9.98;4.03;;;0.10;99.90;;;;;;5098612;27;20039;-92
2024/01/17 11:35:52;;;;;;;7.15;3.33;;;0.10;99.90;;;;;;5094712;28;20046;-92
2024/01/17 11:38:24;;;;;;;10.63;3.90;;;0.10;99.90;;;;;;5094707;27;20139;-92
2024/01/17 11:40:57;;;;;;;10.00;5.03;;;0.10;99.90;;;;;;5094343;27;20058;-94
2024/01/17 11:43:31;;;;;;;14.18;5.28;;;0.20;99.90;;;;;;5078193;28;20406;-91
2024/01/17 11:45:59;;;;;;;10.63;5.00;;;0.20;99.90;;;;;;5083197;28;20039;-92
2024/01/17 11:48:29;;;;;;;9.32;4.50;;;0.10;99.90;;;;;;5096306;28;20496;-93
2024/01/17 11:51:00;;;;;;;10.98;5.25;;;0.20;99.90;;;;;;5105944;28;20753;-91
2024/01/17 11:53:30;;;;;;;16.77;6.75;;;0.20;99.90;;;;;;5094823;28;20049;-92
2024/01/17 11:55:56;;;;;;;9.13;5.10;;;0.20;99.90;;;;;;5097238;28;20038;-92
2024/01/17 11:58:44;;;;;;;13.27;4.13;;;0.20;99.90;;;;;;5096648;28;20039;-92
2024/01/17 12:01:22;;;;;;;7.00;3.47;;;0.20;99.90;;;;;;5092028;28;20036;-92
2024/01/17 12:03:51;;;;;;;10.90;4.90;;;0.20;99.90;;;;;;5100714;28;20033;-92
2024/01/17 12:06:20;;;;;;;9.50;3.33;;;0.20;99.90;;;;;;5075983;28;20035;-92
2024/01/17 12:08:46;;;;;;;13.05;5.40;;;0.20;99.90;;;;;;5095649;28;20125;-92
2024/01/17 12:11:13;;;;;;;13.40;4.22;;;0.30;99.90;;;;;;5104406;27;20086;-92
2024/01/17 12:13:39;;;;;;;10.27;4.78;;;0.30;99.90;;;;;;5099180;28;20055;-92
2024/01/17 12:16:06;;;;;;;13.23;5.40;;;0.30;99.90;;;;;;5098415;28;20406;-91
2024/01/17 12:18:33;;;;;;;7.93;3.30;;;0.30;99.90;;;;;;5096751;28;20038;-91
2024/01/17 12:21:02;;;;;;;13.18;5.60;;;0.40;99.90;;;;;;5083262;28;20050;-91
2024/01/17 12:23:34;;;;;;;14.77;5.38;;;0.40;99.90;;;;;;5079371;28;20024;-91
2024/01/17 12:26:00;;;;;;;10.80;4.57;;;0.40;99.90;;;;;;5091574;28;20035;-92
2024/01/17 12:28:30;;;;;;;13.68;5.70;;;0.50;99.90;;;;;;5082380;28;20035;-92
2024/01/17 12:30:57;;;;;;;7.00;3.42;;;0.50;99.90;;;;;;5079292;28;20036;-91
2024/01/17 12:33:24;;;;;;;8.60;3.63;;;0.50;99.90;;;;;;5091977;28;20125;-93
2024/01/17 12:35:52;;;;;;;8.30;3.83;;;0.50;99.90;;;;;;5094154;27;20437;-92
2024/01/17 12:38:18;;;;;;;9.63;4.78;;;0.50;99.90;;;;;;5095440;28;20064;-92
2024/01/17 12:40:43;;;;;;;13.18;4.28;;;0.50;99.90;;;;;;5084288;28;20035;-92